createdAt,value
2022-08-30T00:02:21.146Z,8.60
2022-08-30T00:04:49.292Z,9.70
2022-08-30T00:07:17.219Z,7.50
2022-08-30T00:09:45.168Z,8.00
2022-08-30T00:12:13.177Z,10.10
2022-08-30T00:14:41.168Z,6.30
2022-08-30T00:17:09.031Z,6.50
2022-08-30T00:19:38.845Z,9.00
2022-08-30T00:22:07.461Z,7.80
2022-08-30T00:24:35.789Z,7.90
2022-08-30T00:27:03.853Z,8.70
2022-08-30T00:29:31.962Z,7.50
2022-08-30T00:32:01.530Z,8.20
2022-08-30T00:34:29.572Z,9.70
2022-08-30T00:36:57.591Z,8.50
2022-08-30T00:39:25.580Z,8.40
2022-08-30T00:41:53.465Z,9.70
2022-08-30T00:44:21.305Z,8.60
2022-08-30T00:46:49.172Z,7.40
2022-08-30T00:49:17.119Z,7.80
2022-08-30T00:51:45.122Z,10.50
2022-08-30T00:54:13.164Z,7.40
2022-08-30T00:56:41.318Z,8.70
2022-08-30T00:59:10.659Z,7.00
2022-08-30T01:01:39.081Z,11.00
2022-08-30T01:04:09.364Z,8.50
2022-08-30T01:06:40.297Z,8.80
2022-08-30T01:09:09.397Z,9.80
2022-08-30T01:11:38.676Z,8.60
2022-08-30T01:14:09.014Z,7.80
2022-08-30T01:16:41.607Z,9.10
2022-08-30T01:19:24.818Z,8.10
2022-08-30T01:22:00.416Z,7.30
2022-08-30T01:24:29.767Z,8.70
2022-08-30T01:26:58.478Z,11.20
2022-08-30T01:29:27.027Z,8.10
2022-08-30T01:31:55.030Z,7.70
2022-08-30T01:34:23.025Z,9.20
2022-08-30T01:36:51.715Z,9.30
2022-08-30T01:39:19.899Z,8.80
2022-08-30T01:41:47.852Z,8.10
2022-08-30T01:44:17.065Z,9.70
2022-08-30T01:46:49.105Z,9.70
2022-08-30T01:49:27.416Z,9.00
2022-08-30T01:52:01.047Z,10.70
2022-08-30T01:54:37.954Z,9.40
2022-08-30T01:57:22.815Z,9.90
2022-08-30T01:59:51.147Z,8.20
2022-08-30T02:02:24.596Z,7.30
2022-08-30T02:04:54.156Z,7.40
2022-08-30T02:07:24.495Z,8.00
2022-08-30T02:09:53.549Z,9.70
2022-08-30T02:12:21.595Z,8.20
2022-08-30T02:14:49.609Z,8.00
2022-08-30T02:17:19.607Z,8.60
2022-08-30T02:19:47.546Z,10.70
2022-08-30T02:22:17.083Z,10.00
2022-08-30T02:24:44.935Z,9.00
2022-08-30T02:27:12.908Z,10.40
2022-08-30T02:29:40.946Z,8.80
2022-08-30T02:32:08.809Z,8.10
2022-08-30T02:34:37.150Z,9.70
2022-08-30T02:37:06.347Z,10.50
2022-08-30T02:39:34.358Z,13.10
2022-08-30T02:42:02.635Z,9.60
2022-08-30T02:44:30.518Z,10.90
2022-08-30T02:46:58.719Z,10.20
2022-08-30T02:49:34.327Z,9.50
2022-08-30T02:52:05.798Z,8.00
2022-08-30T02:54:33.900Z,8.20
2022-08-30T02:57:05.228Z,10.00
2022-08-30T02:59:34.102Z,8.50
2022-08-30T03:02:02.131Z,9.50
2022-08-30T03:04:30.082Z,11.10
2022-08-30T03:06:59.452Z,10.10
2022-08-30T03:09:27.717Z,9.80
2022-08-30T03:11:55.557Z,8.20
2022-08-30T03:14:24.287Z,9.10
2022-08-30T03:16:52.469Z,9.10
2022-08-30T03:19:21.005Z,10.20
2022-08-30T03:21:49.413Z,9.90
2022-08-30T03:24:18.634Z,11.50
2022-08-30T03:26:46.832Z,9.90
2022-08-30T03:29:14.973Z,11.60
2022-08-30T03:31:53.607Z,7.80
2022-08-30T03:34:23.799Z,8.40
2022-08-30T03:36:53.334Z,9.00
2022-08-30T03:39:23.611Z,8.20
2022-08-30T03:41:52.436Z,8.40
2022-08-30T03:44:22.220Z,12.00
2022-08-30T03:46:50.634Z,8.60
2022-08-30T03:49:20.596Z,8.00
2022-08-30T03:51:48.608Z,10.80
2022-08-30T03:54:16.774Z,8.40
2022-08-30T03:56:44.806Z,7.80
2022-08-30T03:59:12.918Z,10.20
2022-08-30T04:01:42.310Z,10.00
2022-08-30T04:04:10.158Z,9.10
2022-08-30T04:06:38.167Z,8.60
2022-08-30T04:09:06.791Z,8.80
2022-08-30T04:11:34.922Z,9.00
2022-08-30T04:14:02.909Z,9.00
2022-08-30T04:16:31.081Z,10.00
2022-08-30T04:18:59.195Z,8.20
2022-08-30T04:21:27.145Z,8.30
2022-08-30T04:23:54.995Z,7.90
2022-08-30T04:26:23.072Z,8.00
2022-08-30T04:28:56.775Z,9.80
2022-08-30T04:31:24.706Z,7.90
2022-08-30T04:33:52.575Z,9.00
2022-08-30T04:36:20.493Z,9.70
2022-08-30T04:38:48.518Z,8.20
2022-08-30T04:41:18.876Z,9.20
2022-08-30T04:43:51.285Z,11.30
2022-08-30T04:46:19.779Z,11.70
2022-08-30T04:48:48.052Z,14.20
2022-08-30T04:51:18.044Z,13.20
2022-08-30T04:53:46.205Z,13.00
2022-08-30T04:56:20.240Z,13.30
2022-08-30T04:58:49.600Z,15.80
2022-08-30T05:01:24.236Z,11.60
2022-08-30T05:03:53.745Z,9.60
2022-08-30T05:06:24.231Z,9.80
2022-08-30T05:08:53.635Z,9.70
2022-08-30T05:11:21.629Z,12.90
2022-08-30T05:13:50.048Z,10.80
2022-08-30T05:16:20.146Z,9.30
2022-08-30T05:18:50.267Z,9.10
2022-08-30T05:21:25.723Z,11.30
2022-08-30T05:23:56.274Z,8.70
2022-08-30T05:26:28.741Z,8.30
2022-08-30T05:28:57.896Z,8.10
2022-08-30T05:31:28.829Z,7.00
2022-08-30T05:33:57.201Z,10.30
2022-08-30T05:36:29.298Z,10.20
2022-08-30T05:38:58.010Z,10.10
2022-08-30T05:41:27.890Z,6.90
2022-08-30T05:43:57.911Z,6.60
2022-08-30T05:49:07.771Z,5.80
2022-08-30T05:51:42.992Z,6.30
2022-08-30T05:54:14.078Z,5.70
2022-08-30T05:56:45.435Z,11.70
2022-08-30T05:59:15.178Z,6.80
2022-08-30T06:01:46.391Z,7.40
2022-08-30T06:04:15.245Z,7.60
2022-08-30T06:06:44.429Z,7.20
2022-08-30T06:09:13.846Z,7.70
2022-08-30T06:11:43.094Z,6.70
2022-08-30T06:14:11.656Z,7.10
2022-08-30T06:16:40.788Z,7.10
2022-08-30T06:19:11.640Z,7.20
2022-08-30T06:21:41.545Z,9.60
2022-08-30T06:24:11.900Z,6.70
2022-08-30T06:26:43.232Z,6.80
2022-08-30T06:29:15.916Z,5.00
2022-08-30T06:31:43.906Z,5.70
2022-08-30T06:34:12.137Z,8.20
2022-08-30T06:36:42.780Z,8.40
2022-08-30T06:39:10.709Z,6.90
2022-08-30T06:41:41.242Z,9.30
2022-08-30T06:44:09.446Z,6.10
2022-08-30T06:46:39.090Z,3.20
2022-08-30T06:49:12.029Z,4.10
2022-08-30T06:51:40.659Z,3.90
2022-08-30T06:54:12.092Z,6.80
2022-08-30T06:56:48.766Z,8.30
2022-08-30T06:59:23.498Z,3.90
2022-08-30T07:01:51.557Z,3.80
2022-08-30T07:04:19.528Z,6.50
2022-08-30T07:06:47.416Z,3.50
2022-08-30T07:09:15.456Z,4.60
2022-08-30T07:11:43.611Z,3.30
2022-08-30T07:14:11.505Z,3.80
2022-08-30T07:16:39.445Z,3.00
2022-08-30T07:19:07.558Z,6.80
2022-08-30T07:21:43.487Z,2.80
2022-08-30T07:24:13.220Z,1.90
2022-08-30T07:26:47.655Z,4.10
2022-08-30T07:29:16.936Z,5.10
2022-08-30T07:31:45.685Z,4.80
2022-08-30T07:34:13.720Z,2.70
2022-08-30T07:36:41.586Z,4.20
2022-08-30T07:39:10.106Z,4.60
2022-08-30T07:41:41.539Z,4.30
2022-08-30T07:44:09.729Z,3.00
2022-08-30T07:46:41.282Z,4.90
2022-08-30T07:49:11.646Z,2.30
2022-08-30T07:51:40.966Z,5.30
2022-08-30T07:54:09.668Z,3.50
2022-08-30T07:56:37.965Z,8.00
2022-08-30T07:59:06.087Z,3.00
2022-08-30T08:01:34.121Z,3.90
2022-08-30T08:04:02.465Z,5.50
2022-08-30T08:06:34.880Z,6.30
2022-08-30T08:09:03.815Z,4.00
2022-08-30T08:11:34.336Z,2.50
2022-08-30T08:14:04.515Z,4.60
2022-08-30T08:16:35.437Z,3.10
2022-08-30T08:19:05.265Z,3.20
2022-08-30T08:21:33.250Z,2.50
2022-08-30T08:24:01.415Z,3.70
2022-08-30T08:26:29.597Z,3.60
2022-08-30T08:28:57.740Z,4.90
2022-08-30T08:31:33.378Z,4.00
2022-08-30T08:34:06.229Z,2.20
2022-08-30T08:36:36.255Z,3.70
2022-08-30T08:39:06.045Z,2.80
2022-08-30T08:41:56.310Z,3.40
2022-08-30T08:45:00.139Z,4.70
2022-08-30T08:47:47.580Z,4.50
2022-08-30T08:50:21.077Z,3.70
2022-08-30T08:53:46.211Z,1.50
2022-08-30T08:56:17.661Z,2.00
2022-08-30T08:58:50.625Z,3.60
2022-08-30T09:01:22.736Z,3.30
2022-08-30T09:03:51.787Z,2.00
2022-08-30T09:06:38.299Z,4.30
2022-08-30T09:09:13.846Z,1.90
2022-08-30T09:11:44.344Z,2.80
2022-08-30T09:14:22.355Z,1.70
2022-08-30T09:17:04.385Z,2.80
2022-08-30T09:19:45.555Z,1.60
2022-08-30T09:22:23.635Z,2.40
2022-08-30T09:25:23.872Z,1.40
2022-08-30T09:27:54.076Z,2.90
2022-08-30T09:30:36.313Z,2.10
2022-08-30T09:33:16.612Z,1.20
2022-08-30T09:35:52.300Z,2.70
2022-08-30T09:38:36.205Z,2.70
2022-08-30T09:41:29.400Z,1.90
2022-08-30T09:44:11.756Z,1.20
2022-08-30T09:46:50.785Z,2.20
2022-08-30T09:49:39.838Z,0.80
2022-08-30T09:52:26.778Z,1.60
2022-08-30T09:55:26.181Z,1.60
2022-08-30T09:58:29.904Z,2.50
2022-08-30T10:01:16.985Z,1.80
2022-08-30T10:04:02.926Z,2.50
2022-08-30T10:07:01.909Z,2.40
2022-08-30T10:09:57.216Z,3.80
2022-08-30T10:12:36.519Z,1.00
2022-08-30T10:15:28.059Z,3.00
2022-08-30T10:18:16.843Z,1.40
2022-08-30T10:21:04.285Z,2.00
2022-08-30T10:24:01.148Z,1.20
2022-08-30T10:26:56.507Z,1.30
2022-08-30T10:29:32.014Z,1.20
2022-08-30T10:32:15.698Z,1.60
2022-08-30T10:35:08.815Z,2.40
2022-08-30T10:38:21.336Z,1.90
2022-08-30T10:41:13.620Z,1.60
2022-08-30T10:43:44.194Z,2.40
2022-08-30T10:46:20.265Z,2.70
2022-08-30T10:48:48.439Z,3.70
2022-08-30T10:52:18.016Z,1.00
2022-08-30T10:54:54.774Z,1.90
2022-08-30T10:57:22.735Z,1.00
2022-08-30T11:00:35.035Z,1.30
2022-08-30T11:03:12.480Z,1.50
2022-08-30T11:05:59.191Z,2.60
2022-08-30T11:08:48.108Z,0.90
2022-08-30T11:11:33.347Z,1.60
2022-08-30T11:14:05.882Z,2.80
2022-08-30T11:16:40.618Z,1.90
2022-08-30T11:19:32.160Z,1.00
2022-08-30T11:22:22.015Z,0.70
2022-08-30T11:25:38.234Z,0.90
2022-08-30T11:28:09.233Z,1.00
2022-08-30T11:30:42.930Z,2.60
2022-08-30T11:33:11.155Z,2.00
2022-08-30T11:35:39.245Z,2.40
2022-08-30T11:38:27.542Z,3.20
2022-08-30T11:40:55.600Z,2.40
2022-08-30T11:43:36.828Z,2.50
2022-08-30T11:46:26.786Z,2.30
2022-08-30T11:48:56.200Z,1.70
2022-08-30T11:51:30.101Z,6.60
2022-08-30T11:54:23.115Z,1.00
2022-08-30T11:56:58.255Z,1.10
2022-08-30T11:59:38.976Z,1.30
2022-08-30T12:02:08.436Z,2.80
2022-08-30T12:04:44.585Z,0.90
2022-08-30T12:07:50.874Z,1.80
2022-08-30T12:10:36.155Z,2.50
2022-08-30T12:13:04.375Z,1.20
2022-08-30T12:15:56.145Z,2.60
2022-08-30T12:18:30.955Z,1.90
2022-08-30T12:21:22.155Z,2.60
2022-08-30T12:24:18.955Z,1.50
2022-08-30T12:26:49.550Z,2.40
2022-08-30T12:29:19.667Z,3.10
2022-08-30T12:32:15.067Z,1.20
2022-08-30T12:34:45.814Z,2.60
2022-08-30T12:37:21.514Z,0.90
2022-08-30T12:40:02.185Z,1.40
2022-08-30T12:42:34.037Z,1.10
2022-08-30T12:45:13.014Z,2.00
2022-08-30T12:47:52.734Z,1.60
2022-08-30T12:50:25.063Z,3.00
2022-08-30T12:53:04.998Z,2.50
2022-08-30T12:55:37.184Z,0.80
2022-08-30T12:58:10.781Z,0.90
2022-08-30T13:00:41.861Z,0.80
2022-08-30T13:03:33.837Z,1.10
2022-08-30T13:06:02.783Z,1.40
2022-08-30T13:08:37.153Z,3.50
2022-08-30T13:11:08.432Z,3.30
2022-08-30T13:13:38.688Z,2.80
2022-08-30T13:16:18.674Z,2.60
2022-08-30T13:18:48.715Z,2.40
2022-08-30T13:21:35.125Z,2.00
2022-08-30T13:24:06.497Z,2.90
2022-08-30T13:26:37.705Z,0.50
2022-08-30T13:29:16.448Z,2.70
2022-08-30T13:31:45.046Z,1.20
2022-08-30T13:34:13.125Z,3.00
2022-08-30T13:36:47.536Z,5.00
2022-08-30T13:39:16.763Z,5.70
2022-08-30T13:41:50.647Z,1.60
2022-08-30T13:44:20.164Z,0.90
2022-08-30T13:46:55.619Z,3.30
2022-08-30T13:49:45.236Z,2.60
2022-08-30T13:52:21.985Z,6.30
2022-08-30T13:54:53.166Z,1.50
2022-08-30T14:00:19.573Z,4.00
2022-08-30T14:02:54.500Z,2.00
2022-08-30T14:05:50.142Z,3.30
2022-08-30T14:11:18.436Z,3.80
2022-08-30T14:16:39.617Z,1.50
2022-08-30T14:19:07.758Z,3.20
2022-08-30T14:21:36.300Z,1.90
2022-08-30T14:24:06.661Z,2.10
2022-08-30T14:26:52.859Z,2.40
2022-08-30T14:29:26.435Z,1.70
2022-08-30T14:31:58.425Z,3.60
2022-08-30T14:34:28.819Z,3.60
2022-08-30T14:36:56.855Z,4.00
2022-08-30T14:39:26.360Z,1.50
2022-08-30T14:41:55.588Z,1.70
2022-08-30T14:44:25.129Z,2.10
2022-08-30T14:46:54.494Z,4.00
2022-08-30T14:49:23.273Z,3.00
2022-08-30T14:51:52.134Z,1.10
2022-08-30T14:54:25.493Z,3.50
2022-08-30T14:56:55.408Z,1.40
2022-08-30T14:59:27.101Z,8.50
2022-08-30T15:01:55.816Z,2.60
2022-08-30T15:04:24.194Z,5.50
2022-08-30T15:06:53.823Z,3.70
2022-08-30T15:09:23.904Z,1.90
2022-08-30T15:11:55.262Z,3.90
2022-08-30T15:14:28.820Z,1.20
2022-08-30T15:16:58.561Z,0.80
2022-08-30T15:19:27.175Z,2.70
2022-08-30T15:21:59.334Z,3.00
2022-08-30T15:24:29.820Z,1.10
2022-08-30T15:27:00.279Z,2.60
2022-08-30T15:29:30.511Z,2.30
2022-08-30T15:32:02.573Z,1.00
2022-08-30T15:34:31.572Z,0.20
2022-08-30T15:36:59.960Z,3.00
2022-08-30T15:39:28.058Z,2.10
2022-08-30T15:42:01.175Z,1.20
2022-08-30T15:44:31.804Z,2.10
2022-08-30T15:47:00.076Z,2.70
2022-08-30T15:49:28.756Z,3.10
2022-08-30T15:52:01.838Z,1.90
2022-08-30T15:54:30.295Z,1.70
2022-08-30T15:57:01.323Z,1.50
2022-08-30T15:59:31.988Z,1.00
2022-08-30T16:02:00.613Z,1.70
2022-08-30T16:04:29.515Z,2.40
2022-08-30T16:06:57.565Z,2.70
2022-08-30T16:09:29.803Z,5.60
2022-08-30T16:11:58.641Z,3.00
2022-08-30T16:14:27.815Z,3.70
2022-08-30T16:16:55.791Z,1.50
2022-08-30T16:19:23.888Z,1.10
2022-08-30T16:21:52.015Z,2.40
2022-08-30T16:24:22.403Z,6.20
2022-08-30T16:26:51.148Z,2.30
2022-08-30T16:29:19.264Z,2.00
2022-08-30T16:31:48.580Z,2.20
2022-08-30T16:34:18.675Z,5.10
2022-08-30T16:36:47.209Z,3.30
2022-08-30T16:39:15.341Z,5.70
2022-08-30T16:41:45.574Z,1.90
2022-08-30T16:44:16.031Z,2.70
2022-08-30T16:46:52.841Z,3.80
2022-08-30T16:49:25.350Z,1.40
2022-08-30T16:51:53.957Z,2.50
2022-08-30T16:54:22.595Z,4.10
2022-08-30T16:56:51.279Z,5.60
2022-08-30T16:59:19.375Z,2.30
2022-08-30T17:01:48.320Z,3.90
2022-08-30T17:07:06.265Z,2.40
2022-08-30T17:09:35.726Z,1.70
2022-08-30T17:12:04.514Z,2.70
2022-08-30T17:14:32.635Z,2.10
2022-08-30T17:17:01.661Z,2.60
2022-08-30T17:19:30.838Z,4.10
2022-08-30T17:21:59.189Z,3.00
2022-08-30T17:24:27.850Z,2.70
2022-08-30T17:26:58.296Z,2.10
2022-08-30T17:29:26.844Z,2.50
2022-08-30T17:31:55.446Z,2.20
2022-08-30T17:34:27.941Z,2.50
2022-08-30T17:37:00.226Z,2.50
2022-08-30T17:39:29.366Z,2.70
2022-08-30T17:41:58.561Z,3.50
2022-08-30T17:44:31.315Z,5.40
2022-08-30T17:47:00.780Z,1.30
2022-08-30T17:49:30.367Z,1.70
2022-08-30T17:52:00.755Z,3.00
2022-08-30T17:54:31.405Z,1.20
2022-08-30T17:56:59.984Z,1.00
2022-08-30T17:59:31.535Z,2.30
2022-08-30T18:02:04.480Z,2.00
2022-08-30T18:04:32.660Z,2.80
2022-08-30T18:07:01.355Z,5.70
2022-08-30T18:09:33.926Z,1.80
2022-08-30T18:12:02.503Z,2.40
2022-08-30T18:14:30.534Z,1.90
2022-08-30T18:16:58.977Z,4.50
2022-08-30T18:19:29.474Z,2.90
2022-08-30T18:21:57.384Z,3.30
2022-08-30T18:24:26.335Z,1.10
2022-08-30T18:26:57.299Z,5.10
2022-08-30T18:29:29.634Z,3.50
2022-08-30T18:32:01.737Z,2.40
2022-08-30T18:34:30.122Z,2.10
2022-08-30T18:36:58.111Z,1.00
2022-08-30T18:39:26.619Z,2.30
2022-08-30T18:41:56.981Z,1.50
2022-08-30T18:44:28.905Z,2.20
2022-08-30T18:47:00.633Z,1.60
2022-08-30T18:52:20.576Z,1.30
2022-08-30T18:54:52.636Z,2.40
2022-08-30T18:57:22.513Z,1.30
2022-08-30T18:59:50.971Z,2.50
2022-08-30T19:02:19.137Z,2.00
2022-08-30T19:04:50.654Z,1.60
2022-08-30T19:07:19.486Z,2.60
2022-08-30T19:09:47.917Z,2.30
2022-08-30T19:12:16.187Z,1.80
2022-08-30T19:14:44.227Z,4.30
2022-08-30T19:17:13.052Z,2.00
2022-08-30T19:19:46.364Z,1.50
2022-08-30T19:22:20.570Z,1.70
2022-08-30T19:24:50.575Z,1.10
2022-08-30T19:27:21.645Z,1.40
2022-08-30T19:30:23.035Z,1.70
2022-08-30T19:32:53.220Z,2.40
2022-08-30T19:35:22.220Z,2.40
2022-08-30T19:37:50.222Z,4.30
2022-08-30T19:40:22.607Z,3.90
2022-08-30T19:45:18.218Z,3.90
2022-08-30T19:47:47.559Z,4.40
2022-08-30T19:50:16.510Z,5.50
2022-08-30T19:52:48.429Z,5.30
2022-08-30T19:55:23.682Z,4.50
2022-08-30T19:57:52.325Z,8.50
2022-08-30T20:00:21.101Z,3.60
2022-08-30T20:07:25.250Z,1.60
2022-08-30T20:09:56.054Z,1.50
2022-08-30T20:12:24.055Z,7.30
2022-08-30T20:14:52.336Z,4.20
2022-08-30T20:17:22.661Z,2.90
2022-08-30T20:19:51.035Z,5.20
2022-08-30T20:22:19.416Z,4.70
2022-08-30T20:24:23.871Z,3.90
2022-08-30T20:24:29.583Z,1.70
2022-08-30T20:24:47.589Z,4.90
2022-08-30T20:27:17.710Z,4.20
2022-08-30T20:29:46.757Z,2.70
2022-08-30T20:32:15.036Z,3.30
2022-08-30T20:34:43.576Z,2.90
2022-08-30T20:37:12.856Z,3.60
2022-08-30T20:39:41.238Z,3.50
2022-08-30T20:42:09.815Z,3.60
2022-08-30T20:44:37.988Z,4.10
2022-08-30T20:47:06.826Z,2.70
2022-08-30T20:49:36.293Z,3.30
2022-08-30T20:52:05.173Z,5.00
2022-08-30T20:54:33.666Z,6.90
2022-08-30T20:57:01.830Z,2.70
2022-08-30T20:59:31.289Z,4.00
2022-08-30T21:02:03.099Z,2.10
2022-08-30T21:04:32.482Z,3.00
2022-08-30T21:07:00.908Z,2.30
2022-08-30T21:09:29.246Z,4.00
2022-08-30T21:11:58.350Z,2.70
2022-08-30T21:14:27.435Z,3.30
2022-08-30T21:16:55.638Z,5.90
2022-08-30T21:19:23.843Z,3.40
2022-08-30T21:21:52.366Z,5.90
2022-08-30T21:24:20.534Z,4.20
2022-08-30T21:26:54.376Z,2.30
2022-08-30T21:29:22.671Z,3.90
2022-08-30T21:31:54.106Z,2.30
2022-08-30T21:34:22.916Z,2.10
2022-08-30T21:36:51.436Z,3.20
2022-08-30T21:39:28.456Z,3.50
2022-08-30T21:41:57.176Z,3.80
2022-08-30T21:44:26.975Z,4.00
2022-08-30T21:46:55.417Z,3.30
2022-08-30T21:49:24.596Z,4.40
2022-08-30T21:51:55.936Z,2.50
2022-08-30T21:54:25.462Z,3.70
2022-08-30T21:57:02.055Z,4.00
2022-08-30T21:59:30.291Z,5.30
2022-08-30T22:02:00.015Z,3.80
2022-08-30T22:04:29.766Z,3.90
2022-08-30T22:06:57.881Z,3.50
2022-08-30T22:09:26.372Z,3.70
2022-08-30T22:11:55.399Z,3.40
2022-08-30T22:14:26.438Z,7.20
2022-08-30T22:16:55.589Z,5.00
2022-08-30T22:19:24.891Z,3.10
2022-08-30T22:22:01.001Z,2.90
2022-08-30T22:24:32.969Z,5.80
2022-08-30T22:27:03.264Z,2.40
2022-08-30T22:29:32.042Z,4.60
2022-08-30T22:32:01.263Z,3.10
2022-08-30T22:34:30.316Z,3.40
2022-08-30T22:36:59.860Z,2.40
2022-08-30T22:39:28.095Z,3.40
2022-08-30T22:41:56.476Z,3.80
2022-08-30T22:44:25.059Z,4.40
2022-08-30T22:46:53.336Z,2.20
2022-08-30T22:49:21.715Z,2.80
2022-08-30T22:51:50.502Z,3.10
2022-08-30T22:54:18.583Z,3.20
2022-08-30T22:56:47.151Z,3.70
2022-08-30T22:59:15.421Z,4.30
2022-08-30T23:01:44.005Z,3.70
2022-08-30T23:04:13.312Z,2.50
2022-08-30T23:06:41.649Z,3.80
2022-08-30T23:09:15.143Z,3.80
2022-08-30T23:11:43.221Z,1.90
2022-08-30T23:14:11.395Z,2.80
2022-08-30T23:16:39.690Z,4.40
2022-08-30T23:19:07.986Z,3.30
2022-08-30T23:21:36.012Z,6.20
2022-08-30T23:24:23.227Z,4.10
2022-08-30T23:27:09.986Z,4.00
2022-08-30T23:29:56.726Z,5.00
2022-08-30T23:32:43.526Z,1.80
2022-08-30T23:35:32.360Z,2.90
2022-08-30T23:38:23.837Z,5.40
2022-08-30T23:41:10.556Z,5.00
2022-08-30T23:43:57.760Z,3.70
2022-08-30T23:46:44.455Z,4.40
2022-08-30T23:49:31.341Z,3.40
2022-08-30T23:52:18.497Z,2.60
2022-08-30T23:55:05.312Z,2.30
2022-08-30T23:57:52.285Z,3.70
